createdAt,value
2019-05-02T00:01:48.766Z,20.65
2019-05-02T00:04:21.329Z,16.82
2019-05-02T00:07:14.348Z,20.15
2019-05-02T00:09:48.338Z,15.03
2019-05-02T00:12:19.676Z,18.75
2019-05-02T00:14:56.446Z,21.27
2019-05-02T00:17:27.621Z,16.75
2019-05-02T00:19:59.635Z,19.48
2019-05-02T00:22:31.812Z,15.75
2019-05-02T00:25:04.084Z,20.85
2019-05-02T00:27:37.783Z,24.55
2019-05-02T00:30:15.075Z,21.62
2019-05-02T00:32:47.095Z,23.47
2019-05-02T00:35:19.735Z,20.00
2019-05-02T00:40:25.773Z,17.95
2019-05-02T00:42:58.217Z,22.00
2019-05-02T00:45:30.395Z,17.50
2019-05-02T00:50:45.397Z,23.57
2019-05-02T00:53:15.334Z,33.18
2019-05-02T00:55:47.345Z,27.67
2019-05-02T00:58:19.303Z,28.95
2019-05-02T01:01:10.285Z,30.17
2019-05-02T01:03:47.213Z,26.00
2019-05-02T01:06:18.363Z,25.65
2019-05-02T01:08:50.465Z,24.18
2019-05-02T01:11:28.355Z,24.50
2019-05-02T01:13:59.916Z,35.38
2019-05-02T01:16:31.853Z,28.52
2019-05-02T01:19:03.943Z,31.33
2019-05-02T01:21:38.929Z,35.85
2019-05-02T01:24:09.726Z,27.32
2019-05-02T01:26:47.355Z,27.07
2019-05-02T01:29:29.849Z,20.75
2019-05-02T01:32:14.813Z,27.55
2019-05-02T01:35:07.165Z,32.00
2019-05-02T01:38:16.345Z,30.68
2019-05-02T01:40:53.078Z,32.78
2019-05-02T01:43:27.494Z,26.77
2019-05-02T01:45:59.469Z,31.07
2019-05-02T01:51:09.224Z,39.47
2019-05-02T01:53:37.405Z,42.90
2019-05-02T01:56:09.785Z,34.50
2019-05-02T01:58:42.256Z,31.00
2019-05-02T02:01:16.277Z,29.18
2019-05-02T02:03:48.973Z,39.78
2019-05-02T02:06:21.883Z,30.35
2019-05-02T02:08:54.324Z,39.23
2019-05-02T02:11:28.482Z,28.95
2019-05-02T02:14:01.316Z,27.22
2019-05-02T02:16:38.846Z,31.97
2019-05-02T02:19:15.786Z,34.23
2019-05-02T02:22:10.056Z,26.75
2019-05-02T02:24:46.066Z,31.15
2019-05-02T02:27:19.873Z,30.77
2019-05-02T02:29:53.402Z,29.95
2019-05-02T02:32:27.098Z,33.63
2019-05-02T02:35:03.659Z,30.68
2019-05-02T02:37:34.207Z,32.28
2019-05-02T02:40:07.455Z,33.08
2019-05-02T02:42:40.203Z,28.95
2019-05-02T02:45:29.306Z,30.88
2019-05-02T02:48:02.578Z,35.73
2019-05-02T02:50:36.898Z,30.08
2019-05-02T02:53:09.291Z,36.95
2019-05-02T02:55:41.713Z,33.40
2019-05-02T02:58:14.315Z,33.73
2019-05-02T03:00:49.264Z,36.03
2019-05-02T03:03:28.118Z,35.43
2019-05-02T03:05:58.820Z,33.98
2019-05-02T03:08:31.296Z,33.53
2019-05-02T03:11:03.745Z,28.00
2019-05-02T03:14:06.886Z,33.65
2019-05-02T03:16:46.163Z,32.48
2019-05-02T03:19:14.737Z,34.25
2019-05-02T03:21:54.536Z,29.52
2019-05-02T03:24:28.255Z,35.98
2019-05-02T03:27:00.765Z,35.85
2019-05-02T03:29:41.140Z,36.83
2019-05-02T03:32:30.199Z,37.30
2019-05-02T03:34:48.351Z,37.20
2019-05-02T03:37:16.370Z,34.60
2019-05-02T03:39:56.982Z,37.78
2019-05-02T03:42:23.496Z,32.93
2019-05-02T03:45:04.114Z,36.42
2019-05-02T03:47:36.881Z,40.20
2019-05-02T03:50:08.936Z,36.98
2019-05-02T03:52:43.951Z,33.35
2019-05-02T03:55:14.456Z,41.05
2019-05-02T03:57:47.294Z,42.03
2019-05-02T04:00:21.906Z,34.95
2019-05-02T04:03:00.486Z,38.53
2019-05-02T04:05:33.921Z,33.98
2019-05-02T04:08:02.727Z,41.70
2019-05-02T04:11:13.485Z,38.20
2019-05-02T04:13:46.143Z,52.90
2019-05-02T04:16:19.902Z,38.60
2019-05-02T04:18:55.686Z,38.63
2019-05-02T04:21:27.435Z,35.08
2019-05-02T04:24:13.016Z,36.55
2019-05-02T04:26:35.288Z,34.50
2019-05-02T04:29:07.736Z,39.98
2019-05-02T04:31:40.450Z,34.83
2019-05-02T04:34:15.154Z,38.75
2019-05-02T04:36:59.422Z,37.53
2019-05-02T04:39:22.064Z,37.93
2019-05-02T04:41:54.672Z,41.90
2019-05-02T04:44:29.817Z,39.50
2019-05-02T04:47:14.027Z,37.35
2019-05-02T04:49:36.797Z,49.10
2019-05-02T04:52:12.242Z,37.83
2019-05-02T04:54:43.695Z,35.92
2019-05-02T04:57:18.441Z,32.45
2019-05-02T04:59:50.913Z,27.85
2019-05-02T05:02:34.165Z,29.37
2019-05-02T05:04:58.839Z,29.80
2019-05-02T05:07:42.590Z,24.18
2019-05-02T05:10:05.406Z,31.55
2019-05-02T05:12:41.688Z,36.45
2019-05-02T05:15:15.237Z,37.05
2019-05-02T05:17:47.911Z,34.53
2019-05-02T05:20:20.565Z,33.53
2019-05-02T05:22:53.226Z,38.35
2019-05-02T05:25:31.944Z,32.70
2019-05-02T05:28:06.125Z,27.95
2019-05-02T05:30:45.368Z,30.23
2019-05-02T05:33:12.493Z,26.82
2019-05-02T05:35:48.780Z,30.10
2019-05-02T05:38:22.992Z,23.67
2019-05-02T05:40:53.853Z,28.87
2019-05-02T05:43:27.633Z,32.78
2019-05-02T05:46:09.363Z,32.85
2019-05-02T05:48:37.222Z,37.50
2019-05-02T05:51:16.966Z,37.55
2019-05-02T05:53:52.388Z,32.45
2019-05-02T05:56:22.904Z,31.93
2019-05-02T05:58:58.924Z,30.95
2019-05-02T06:01:34.071Z,35.45
2019-05-02T06:04:04.223Z,34.40
2019-05-02T06:06:37.739Z,36.75
2019-05-02T06:09:13.646Z,32.75
2019-05-02T06:11:44.966Z,34.38
2019-05-02T06:14:19.945Z,34.10
2019-05-02T06:16:53.185Z,31.57
2019-05-02T06:19:25.939Z,26.48
2019-05-02T06:21:59.055Z,32.23
2019-05-02T06:24:33.884Z,28.80
2019-05-02T06:27:05.963Z,30.35
2019-05-02T06:29:38.553Z,34.05
2019-05-02T06:32:13.990Z,32.98
2019-05-02T06:34:47.543Z,35.17
2019-05-02T06:37:19.255Z,31.07
2019-05-02T06:39:51.725Z,30.43
2019-05-02T06:42:27.709Z,32.60
2019-05-02T06:44:59.758Z,33.95
2019-05-02T06:47:35.891Z,26.02
2019-05-02T06:50:07.575Z,24.98
2019-05-02T06:52:40.089Z,20.95
2019-05-02T06:55:12.715Z,25.92
2019-05-02T06:57:45.443Z,26.40
2019-05-02T07:00:18.245Z,20.75
2019-05-02T07:02:50.768Z,22.85
2019-05-02T07:05:27.199Z,22.70
2019-05-02T07:07:57.515Z,28.12
2019-05-02T07:10:43.578Z,21.48
2019-05-02T07:13:10.801Z,28.00
2019-05-02T07:15:54.879Z,29.23
2019-05-02T07:18:29.077Z,22.85
2019-05-02T07:21:01.957Z,25.25
2019-05-02T07:23:34.305Z,32.45
2019-05-02T07:26:07.153Z,30.82
2019-05-02T07:28:40.360Z,27.13
2019-05-02T07:31:13.933Z,31.42
2019-05-02T07:33:46.763Z,30.10
2019-05-02T07:36:19.263Z,27.22
2019-05-02T07:38:51.836Z,26.20
2019-05-02T07:41:29.047Z,24.32
2019-05-02T07:43:58.646Z,18.25
2019-05-02T07:46:31.143Z,18.35
2019-05-02T07:49:03.728Z,19.90
2019-05-02T07:51:36.148Z,22.00
2019-05-02T07:54:08.665Z,17.80
2019-05-02T07:56:41.143Z,15.43
2019-05-02T07:59:13.233Z,13.48
2019-05-02T08:01:49.658Z,12.65
2019-05-02T08:04:19.038Z,13.05
2019-05-02T08:06:51.106Z,13.00
2019-05-02T08:09:23.105Z,13.28
2019-05-02T08:14:29.316Z,12.73
2019-05-02T08:17:05.809Z,16.57
2019-05-02T08:19:37.580Z,20.62
2019-05-02T08:22:13.244Z,14.47
2019-05-02T08:24:42.383Z,19.07
2019-05-02T08:30:24.287Z,15.45
2019-05-02T08:32:56.316Z,11.43
2019-05-02T08:35:28.528Z,13.43
2019-05-02T08:38:00.495Z,8.43
2019-05-02T08:40:32.433Z,13.62
2019-05-02T08:43:08.997Z,10.18
2019-05-02T08:45:39.641Z,13.88
2019-05-02T08:48:13.675Z,13.20
2019-05-02T08:50:45.993Z,13.20
2019-05-02T08:53:19.882Z,11.70
2019-05-02T08:55:51.985Z,13.32
2019-05-02T08:58:24.013Z,13.15
2019-05-02T09:00:56.934Z,10.00
2019-05-02T09:03:29.139Z,11.55
2019-05-02T09:08:33.505Z,14.18
2019-05-02T09:11:05.603Z,11.38
2019-05-02T09:13:37.697Z,14.38
2019-05-02T09:16:09.575Z,16.17
2019-05-02T09:18:50.537Z,10.38
2019-05-02T09:21:15.606Z,9.75
2019-05-02T09:23:48.263Z,11.40
2019-05-02T09:26:33.327Z,15.40
2019-05-02T09:28:56.191Z,11.38
2019-05-02T09:31:28.047Z,9.83
2019-05-02T09:36:32.315Z,11.03
2019-05-02T09:39:06.175Z,10.48
2019-05-02T09:41:39.333Z,8.95
2019-05-02T09:44:14.530Z,8.28
2019-05-02T09:46:47.369Z,10.53
2019-05-02T09:49:19.003Z,15.15
2019-05-02T09:51:59.383Z,6.17
2019-05-02T09:54:26.006Z,13.62
2019-05-02T09:56:58.254Z,7.55
2019-05-02T09:59:33.475Z,7.53
2019-05-02T10:02:08.614Z,11.90
2019-05-02T10:04:43.837Z,7.50
2019-05-02T10:07:15.631Z,9.58
2019-05-02T10:09:47.717Z,8.78
2019-05-02T10:12:19.742Z,8.75
2019-05-02T10:14:52.672Z,11.22
2019-05-02T10:17:25.592Z,8.40
2019-05-02T10:19:57.755Z,9.70
2019-05-02T10:22:33.736Z,7.75
2019-05-02T10:25:04.575Z,9.43
2019-05-02T10:27:42.889Z,7.15
2019-05-02T10:30:15.596Z,11.55
2019-05-02T10:32:55.604Z,9.98
2019-05-02T10:35:28.123Z,9.70
2019-05-02T10:37:58.153Z,9.55
2019-05-02T10:40:32.019Z,14.00
2019-05-02T10:43:04.086Z,9.65
2019-05-02T10:45:37.493Z,9.68
2019-05-02T10:48:22.859Z,8.48
2019-05-02T10:50:48.707Z,9.55
2019-05-02T10:53:21.939Z,13.83
2019-05-02T10:55:55.073Z,7.75
2019-05-02T10:58:34.163Z,8.55
2019-05-02T11:01:04.533Z,10.15
2019-05-02T11:03:43.777Z,7.10
2019-05-02T11:06:14.363Z,7.80
2019-05-02T11:11:18.648Z,7.57
2019-05-02T11:14:05.701Z,8.68
2019-05-02T11:16:42.807Z,8.30
2019-05-02T11:19:23.366Z,7.10
2019-05-02T11:21:59.015Z,8.85
2019-05-02T11:24:29.353Z,9.78
2019-05-02T11:29:34.393Z,10.08
2019-05-02T11:32:06.605Z,8.50
2019-05-02T11:37:09.465Z,7.65
2019-05-02T11:44:44.983Z,13.50
2019-05-02T11:47:17.302Z,10.90
2019-05-02T11:49:55.630Z,7.42
2019-05-02T11:52:27.367Z,11.97
2019-05-02T11:54:58.613Z,9.75
2019-05-02T11:57:33.022Z,8.68
2019-05-02T12:00:08.867Z,8.48
2019-05-02T12:02:58.348Z,10.15
2019-05-02T12:05:35.846Z,7.50
2019-05-02T12:08:09.482Z,27.15
2019-05-02T12:10:42.245Z,10.63
2019-05-02T12:13:16.188Z,14.07
2019-05-02T12:15:48.454Z,12.25
2019-05-02T12:18:23.249Z,11.33
2019-05-02T12:20:55.210Z,13.22
2019-05-02T12:23:27.988Z,13.90
2019-05-02T12:26:00.145Z,8.25
2019-05-02T12:28:32.471Z,8.23
2019-05-02T12:31:08.082Z,15.28
2019-05-02T12:33:42.657Z,11.35
2019-05-02T12:36:15.128Z,10.80
2019-05-02T12:38:48.043Z,9.23
2019-05-02T12:41:24.948Z,12.98
2019-05-02T12:43:55.145Z,12.65
2019-05-02T12:46:28.550Z,10.10
2019-05-02T12:49:02.815Z,12.63
2019-05-02T12:51:35.025Z,11.15
2019-05-02T12:56:38.013Z,9.68
2019-05-02T12:59:11.877Z,9.63
2019-05-02T13:01:45.144Z,9.93
2019-05-02T13:06:48.153Z,11.22
2019-05-02T13:09:20.383Z,9.60
2019-05-02T13:11:59.082Z,8.70
2019-05-02T13:14:32.535Z,13.13
2019-05-02T13:17:06.024Z,11.25
2019-05-02T13:19:41.399Z,11.00
2019-05-02T13:22:27.516Z,9.85
2019-05-02T13:25:12.799Z,10.10
2019-05-02T13:27:48.126Z,10.95
2019-05-02T13:30:46.203Z,12.40
2019-05-02T13:33:27.314Z,12.75
2019-05-02T13:35:58.633Z,8.15
2019-05-02T13:38:32.830Z,10.08
2019-05-02T13:41:04.903Z,10.70
2019-05-02T13:43:44.535Z,10.28
2019-05-02T13:46:22.197Z,13.78
2019-05-02T13:48:54.296Z,12.00
2019-05-02T13:51:26.552Z,9.55
2019-05-02T13:54:02.381Z,10.18
2019-05-02T13:56:52.400Z,9.23
2019-05-02T13:59:23.765Z,12.00
2019-05-02T14:04:27.105Z,10.63
2019-05-02T14:06:59.376Z,10.25
2019-05-02T14:09:57.885Z,12.00
2019-05-02T14:12:45.485Z,12.40
2019-05-02T14:15:22.090Z,10.43
2019-05-02T14:17:54.044Z,10.32
2019-05-02T14:22:57.005Z,10.82
2019-05-02T14:25:32.210Z,10.25
2019-05-02T14:28:04.445Z,12.75
2019-05-02T14:35:45.783Z,10.05
2019-05-02T14:38:18.267Z,14.10
2019-05-02T14:41:24.099Z,11.12
2019-05-02T14:43:56.751Z,11.25
2019-05-02T14:46:34.317Z,14.30
2019-05-02T14:49:02.888Z,15.55
2019-05-02T14:51:36.751Z,11.18
2019-05-02T14:54:09.103Z,12.05
2019-05-02T14:57:02.180Z,24.05
2019-05-02T14:59:34.443Z,18.05
2019-05-02T15:02:12.935Z,13.58
2019-05-02T15:04:48.710Z,13.05
2019-05-02T15:07:22.894Z,11.28
2019-05-02T15:09:52.569Z,10.00
2019-05-02T15:12:24.772Z,11.05
2019-05-02T15:14:58.639Z,10.78
2019-05-02T15:17:36.459Z,11.60
2019-05-02T15:20:05.073Z,20.15
2019-05-02T15:22:37.655Z,14.30
2019-05-02T15:25:15.821Z,16.50
2019-05-02T15:27:45.266Z,11.40
2019-05-02T15:30:18.365Z,14.60
2019-05-02T15:32:58.570Z,11.73
2019-05-02T15:35:49.553Z,12.65
2019-05-02T15:38:27.371Z,11.38
2019-05-02T15:40:59.154Z,12.03
2019-05-02T15:43:28.834Z,11.10
2019-05-02T15:46:01.999Z,13.10
2019-05-02T15:48:34.285Z,14.95
2019-05-02T15:51:08.900Z,15.70
2019-05-02T15:54:08.811Z,16.37
2019-05-02T15:57:00.878Z,11.10
2019-05-02T15:59:43.220Z,13.25
2019-05-02T16:02:12.950Z,12.68
2019-05-02T16:04:45.205Z,13.35
2019-05-02T16:09:51.715Z,11.35
2019-05-02T16:12:22.256Z,17.12
2019-05-02T16:14:54.373Z,10.80
2019-05-02T16:17:28.935Z,13.62
2019-05-02T16:20:10.839Z,16.67
2019-05-02T16:22:46.287Z,11.20
2019-05-02T16:25:15.685Z,12.40
2019-05-02T16:27:48.175Z,13.30
2019-05-02T16:30:23.103Z,13.40
2019-05-02T16:32:57.531Z,12.13
2019-05-02T16:35:31.605Z,13.93
2019-05-02T16:38:03.835Z,11.38
2019-05-02T16:40:35.994Z,12.73
2019-05-02T16:45:38.985Z,12.20
2019-05-02T16:48:12.057Z,11.48
2019-05-02T16:50:45.025Z,10.72
2019-05-02T16:53:21.931Z,15.43
2019-05-02T16:55:50.805Z,19.37
2019-05-02T16:58:22.724Z,12.80
2019-05-02T17:03:26.593Z,12.10
2019-05-02T17:06:01.570Z,12.50
2019-05-02T17:09:02.316Z,13.03
2019-05-02T17:11:41.982Z,14.78
2019-05-02T17:14:14.186Z,10.75
2019-05-02T17:16:47.011Z,10.95
2019-05-02T17:19:21.612Z,14.83
2019-05-02T17:21:56.420Z,14.87
2019-05-02T17:24:27.346Z,11.38
2019-05-02T17:26:59.538Z,13.00
2019-05-02T17:29:31.879Z,12.47
2019-05-02T17:34:35.135Z,12.93
2019-05-02T17:39:42.676Z,13.43
2019-05-02T17:42:17.005Z,18.57
2019-05-02T17:44:46.986Z,17.15
2019-05-02T17:47:20.243Z,14.15
2019-05-02T17:49:54.217Z,13.58
2019-05-02T17:52:42.644Z,11.08
2019-05-02T17:57:41.998Z,10.78
2019-05-02T18:00:21.685Z,16.73
2019-05-02T18:02:53.963Z,13.85
2019-05-02T18:05:30.935Z,13.30
2019-05-02T18:08:00.122Z,14.15
2019-05-02T18:10:32.674Z,10.20
2019-05-02T18:13:04.913Z,12.85
2019-05-02T18:15:37.094Z,16.52
2019-05-02T18:18:10.141Z,12.18
2019-05-02T18:20:46.381Z,11.15
2019-05-02T18:23:18.785Z,11.80
2019-05-02T18:25:52.422Z,11.53
2019-05-02T18:28:26.344Z,13.83
2019-05-02T18:31:05.727Z,12.63
2019-05-02T18:33:41.024Z,11.03
2019-05-02T18:36:10.285Z,13.68
2019-05-02T18:38:42.534Z,16.52
2019-05-02T18:41:14.515Z,14.55
2019-05-02T18:43:47.705Z,11.95
2019-05-02T18:46:20.069Z,13.80
2019-05-02T18:48:53.765Z,12.13
2019-05-02T18:53:57.995Z,12.58
2019-05-02T18:56:35.606Z,17.60
2019-05-02T18:59:04.544Z,16.30
2019-05-02T19:01:36.585Z,12.73
2019-05-02T19:04:08.853Z,15.18
2019-05-02T19:06:42.013Z,8.58
2019-05-02T19:09:17.445Z,12.00
2019-05-02T19:11:48.502Z,15.35
2019-05-02T19:14:22.330Z,9.93
2019-05-02T19:16:58.069Z,10.35
2019-05-02T19:19:33.027Z,14.28
2019-05-02T19:22:02.688Z,26.07
2019-05-02T19:24:36.638Z,14.35
2019-05-02T19:27:09.585Z,11.33
2019-05-02T19:29:42.472Z,12.73
2019-05-02T19:32:17.055Z,10.90
2019-05-02T19:34:48.576Z,10.98
2019-05-02T19:37:21.693Z,14.00
2019-05-02T19:39:56.760Z,15.15
2019-05-02T19:42:28.546Z,15.60
2019-05-02T19:45:03.773Z,10.13
2019-05-02T19:47:34.333Z,16.07
2019-05-02T19:50:08.119Z,14.30
2019-05-02T19:52:41.011Z,14.18
2019-05-02T19:55:19.803Z,19.42
2019-05-02T19:57:48.696Z,18.40
2019-05-02T20:00:21.925Z,16.35
2019-05-02T20:02:53.985Z,27.80
2019-05-02T20:05:26.113Z,22.13
2019-05-02T20:07:58.674Z,21.57
2019-05-02T20:10:32.148Z,18.07
2019-05-02T20:13:04.414Z,28.10
2019-05-02T20:18:09.705Z,30.40
2019-05-02T20:20:51.858Z,25.30
2019-05-02T20:23:31.032Z,33.50
2019-05-02T20:25:57.413Z,39.25
2019-05-02T20:28:31.622Z,44.42
2019-05-02T20:31:03.346Z,43.45
2019-05-02T20:33:37.715Z,52.25
2019-05-02T20:36:09.895Z,40.03
2019-05-02T20:38:41.980Z,36.88
2019-05-02T20:43:45.066Z,39.20
2019-05-02T20:48:47.946Z,39.60
2019-05-02T20:51:20.173Z,36.30
2019-05-02T20:53:52.675Z,36.33
2019-05-02T20:56:27.415Z,35.28
2019-05-02T20:59:01.879Z,35.75
2019-05-02T21:01:33.726Z,40.75
2019-05-02T21:04:05.933Z,33.67
2019-05-02T21:07:01.998Z,38.13
2019-05-02T21:09:56.105Z,39.55
2019-05-02T21:12:28.289Z,36.70
2019-05-02T21:17:32.744Z,50.65
2019-05-02T21:20:05.793Z,40.10
2019-05-02T21:22:37.886Z,32.15
2019-05-02T21:25:13.027Z,30.45
2019-05-02T21:27:44.926Z,32.00
2019-05-02T21:30:21.703Z,40.83
2019-05-02T21:32:53.882Z,41.02
2019-05-02T21:35:25.954Z,49.70
2019-05-02T21:37:59.173Z,42.10
2019-05-02T21:40:32.697Z,48.92
2019-05-02T21:43:05.005Z,55.92
2019-05-02T21:45:37.116Z,43.02
2019-05-02T21:48:09.113Z,64.70
2019-05-02T21:50:49.686Z,39.85
2019-05-02T21:53:27.423Z,47.60
2019-05-02T21:56:21.890Z,39.80
2019-05-02T21:59:06.883Z,43.33
2019-05-02T22:01:46.245Z,43.02
2019-05-02T22:04:18.575Z,39.58
2019-05-02T22:06:52.226Z,51.30
2019-05-02T22:09:24.633Z,44.90
2019-05-02T22:14:27.403Z,40.43
2019-05-02T22:19:32.313Z,42.10
2019-05-02T22:22:05.724Z,47.10
2019-05-02T22:27:09.005Z,47.62
2019-05-02T22:29:42.916Z,39.73
2019-05-02T22:32:14.865Z,41.60
2019-05-02T22:34:46.787Z,44.18
2019-05-02T22:37:22.072Z,36.75
2019-05-02T22:39:59.644Z,46.13
2019-05-02T22:42:32.379Z,35.23
2019-05-02T22:45:05.833Z,35.05
2019-05-02T22:47:37.803Z,37.17
2019-05-02T22:50:13.888Z,59.03
2019-05-02T22:52:44.823Z,43.30
2019-05-02T22:55:17.013Z,47.50
2019-05-02T23:00:21.666Z,48.70
2019-05-02T23:02:53.846Z,42.93
2019-05-02T23:05:26.285Z,59.60
2019-05-02T23:07:58.203Z,46.80
2019-05-02T23:10:30.403Z,44.95
2019-05-02T23:15:34.925Z,60.85
2019-05-02T23:18:06.905Z,60.45
2019-05-02T23:20:38.888Z,49.25
2019-05-02T23:23:12.497Z,68.37
2019-05-02T23:26:05.085Z,56.33
2019-05-02T23:28:38.657Z,47.70
2019-05-02T23:31:11.474Z,54.45
2019-05-02T23:34:02.091Z,63.73
2019-05-02T23:36:34.425Z,40.78
2019-05-02T23:41:39.293Z,38.15
2019-05-02T23:44:12.265Z,35.38
2019-05-02T23:46:44.535Z,37.38
2019-05-02T23:51:47.766Z,42.73
2019-05-02T23:56:50.790Z,38.78
2019-05-02T23:59:23.043Z,34.65
